createdAt,value
2018-06-12T00:00:13.104Z,15.70
2018-06-12T00:00:45.836Z,15.70
2018-06-12T00:01:18.584Z,15.70
2018-06-12T00:01:51.328Z,15.70
2018-06-12T00:02:24.778Z,15.70
2018-06-12T00:02:57.986Z,15.80
2018-06-12T00:03:31.466Z,15.70
2018-06-12T00:04:04.736Z,15.70
2018-06-12T00:04:37.496Z,15.70
2018-06-12T00:05:10.228Z,15.70
2018-06-12T00:05:42.963Z,15.60
2018-06-12T00:06:15.690Z,15.60
2018-06-12T00:06:48.437Z,15.60
2018-06-12T00:07:21.180Z,15.60
2018-06-12T00:07:54.151Z,15.60
2018-06-12T00:08:27.869Z,15.60
2018-06-12T00:09:00.768Z,15.60
2018-06-12T00:09:33.544Z,15.60
2018-06-12T00:10:06.280Z,15.60
2018-06-12T00:10:39.028Z,15.60
2018-06-12T00:11:11.755Z,15.60
2018-06-12T00:11:44.478Z,15.60
2018-06-12T00:12:17.208Z,15.60
2018-06-12T00:12:49.951Z,15.50
2018-06-12T00:13:23.104Z,15.50
2018-06-12T00:13:56.352Z,15.50
2018-06-12T00:14:29.520Z,15.50
2018-06-12T00:15:02.709Z,15.50
2018-06-12T00:15:35.656Z,15.40
2018-06-12T00:16:08.408Z,15.50
2018-06-12T00:16:41.144Z,15.50
2018-06-12T00:17:13.904Z,15.50
2018-06-12T00:17:46.624Z,15.40
2018-06-12T00:18:19.340Z,15.40
2018-06-12T00:18:52.161Z,15.40
2018-06-12T00:19:25.616Z,15.40
2018-06-12T00:19:58.547Z,15.40
2018-06-12T00:20:31.460Z,15.50
2018-06-12T00:21:04.272Z,15.50
2018-06-12T00:21:37.020Z,15.50
2018-06-12T00:22:09.744Z,15.50
2018-06-12T00:22:42.468Z,15.50
2018-06-12T00:23:15.400Z,15.50
2018-06-12T00:24:20.776Z,15.40
2018-06-12T00:24:54.023Z,15.40
2018-06-12T00:25:27.382Z,15.40
2018-06-12T00:26:00.327Z,15.40
2018-06-12T00:26:33.518Z,15.40
2018-06-12T00:27:06.256Z,15.50
2018-06-12T00:27:38.983Z,15.40
2018-06-12T00:28:11.724Z,15.40
2018-06-12T00:28:44.468Z,15.50
2018-06-12T00:29:17.184Z,15.40
2018-06-12T00:29:49.928Z,15.40
2018-06-12T00:30:23.321Z,15.50
2018-06-12T00:30:56.720Z,15.40
2018-06-12T00:31:29.876Z,15.40
2018-06-12T00:32:02.932Z,15.40
2018-06-12T00:32:35.648Z,15.40
2018-06-12T00:33:08.396Z,15.40
2018-06-12T00:33:41.148Z,15.40
2018-06-12T00:34:13.876Z,15.40
2018-06-12T00:34:46.600Z,15.30
2018-06-12T00:35:19.355Z,15.30
2018-06-12T00:35:52.496Z,15.30
2018-06-12T00:36:25.832Z,15.40
2018-06-12T00:36:58.721Z,15.40
2018-06-12T00:37:31.662Z,15.30
2018-06-12T00:38:04.687Z,15.30
2018-06-12T00:38:37.416Z,15.40
2018-06-12T00:39:10.137Z,15.30
2018-06-12T00:39:42.873Z,15.30
2018-06-12T00:40:15.600Z,15.30
2018-06-12T00:40:48.320Z,15.30
2018-06-12T00:41:21.100Z,15.30
2018-06-12T00:41:54.032Z,15.30
2018-06-12T00:42:27.212Z,15.30
2018-06-12T00:43:00.259Z,15.30
2018-06-12T00:43:33.010Z,15.30
2018-06-12T00:44:05.726Z,15.30
2018-06-12T00:44:38.387Z,15.20
2018-06-12T00:45:11.077Z,15.20
2018-06-12T00:45:43.758Z,15.20
2018-06-12T00:46:16.414Z,15.20
2018-06-12T00:46:49.098Z,15.20
2018-06-12T00:47:21.771Z,15.20
2018-06-12T00:47:55.253Z,15.20
2018-06-12T00:48:28.111Z,15.20
2018-06-12T00:49:01.144Z,15.20
2018-06-12T00:49:33.918Z,15.20
2018-06-12T00:50:06.611Z,15.20
2018-06-12T00:50:39.290Z,15.30
2018-06-12T00:51:11.954Z,15.30
2018-06-12T00:51:44.642Z,15.30
2018-06-12T00:52:17.334Z,15.20
2018-06-12T00:52:50.007Z,15.30
2018-06-12T00:53:22.853Z,15.30
2018-06-12T00:53:55.919Z,15.30
2018-06-12T00:54:28.795Z,15.30
2018-06-12T00:55:01.699Z,15.20
2018-06-12T00:55:34.410Z,15.20
2018-06-12T00:56:07.139Z,15.20
2018-06-12T00:56:51.134Z,15.20
2018-06-12T00:57:24.510Z,15.20
2018-06-12T00:57:58.290Z,15.20
2018-06-12T00:58:31.160Z,15.20
2018-06-12T00:59:03.895Z,15.20
2018-06-12T00:59:36.590Z,15.20
2018-06-12T01:00:09.274Z,15.20
2018-06-12T01:00:41.995Z,15.20
2018-06-12T01:01:14.651Z,15.10
2018-06-12T01:01:47.324Z,15.10
2018-06-12T01:02:19.991Z,15.10
2018-06-12T01:02:53.133Z,15.10
2018-06-12T01:03:26.069Z,15.10
2018-06-12T01:03:59.160Z,15.10
2018-06-12T01:04:32.057Z,15.10
2018-06-12T01:05:04.791Z,15.20
2018-06-12T01:05:37.479Z,15.20
2018-06-12T01:06:10.131Z,15.20
2018-06-12T01:06:42.791Z,15.20
2018-06-12T01:07:15.447Z,15.20
2018-06-12T01:07:48.066Z,15.20
2018-06-12T01:08:20.742Z,15.20
2018-06-12T01:08:53.911Z,15.20
2018-06-12T01:09:26.754Z,15.30
2018-06-12T01:09:59.653Z,15.30
2018-06-12T01:10:32.582Z,15.30
2018-06-12T01:11:05.350Z,15.30
2018-06-12T01:11:38.022Z,15.30
2018-06-12T01:12:10.678Z,15.30
2018-06-12T01:12:43.326Z,15.30
2018-06-12T01:13:16.023Z,15.30
2018-06-12T01:13:48.755Z,15.30
2018-06-12T01:14:21.414Z,15.30
2018-06-12T01:14:54.465Z,15.30
2018-06-12T01:15:27.714Z,15.30
2018-06-12T01:16:00.798Z,15.30
2018-06-12T01:16:33.568Z,15.30
2018-06-12T01:17:06.294Z,15.30
2018-06-12T01:17:38.962Z,15.30
2018-06-12T01:18:11.627Z,15.30
2018-06-12T01:18:44.322Z,15.30
2018-06-12T01:19:17.034Z,15.30
2018-06-12T01:19:49.730Z,15.30
2018-06-12T01:20:22.520Z,15.30
2018-06-12T01:20:55.706Z,15.30
2018-06-12T01:21:28.538Z,15.30
2018-06-12T01:22:01.441Z,15.40
2018-06-12T01:22:34.174Z,15.40
2018-06-12T01:23:06.855Z,15.30
2018-06-12T01:23:39.502Z,15.30
2018-06-12T01:24:12.170Z,15.30
2018-06-12T01:24:44.854Z,15.30
2018-06-12T01:25:17.506Z,15.30
2018-06-12T01:25:50.182Z,15.30
2018-06-12T01:26:23.036Z,15.30
2018-06-12T01:26:56.406Z,15.40
2018-06-12T01:27:29.325Z,15.40
2018-06-12T01:28:02.426Z,15.30
2018-06-12T01:28:35.119Z,15.40
2018-06-12T01:29:07.785Z,15.30
2018-06-12T01:29:40.467Z,15.30
2018-06-12T01:30:13.162Z,15.30
2018-06-12T01:30:45.814Z,15.30
2018-06-12T01:31:18.465Z,15.20
2018-06-12T01:31:51.118Z,15.20
2018-06-12T01:32:24.447Z,15.20
2018-06-12T01:32:57.375Z,15.20
2018-06-12T01:33:30.255Z,15.20
2018-06-12T01:34:35.544Z,15.10
2018-06-12T01:35:08.239Z,15.10
2018-06-12T01:35:40.918Z,15.10
2018-06-12T01:36:13.606Z,15.10
2018-06-12T01:36:46.262Z,15.10
2018-06-12T01:37:18.926Z,15.10
2018-06-12T01:37:51.641Z,15.10
2018-06-12T01:38:24.968Z,15.10
2018-06-12T01:38:57.818Z,15.10
2018-06-12T01:39:30.652Z,15.10
2018-06-12T01:40:03.597Z,15.20
2018-06-12T01:40:36.255Z,15.20
2018-06-12T01:41:08.966Z,15.20
2018-06-12T01:41:41.649Z,15.20
2018-06-12T01:42:14.313Z,15.10
2018-06-12T01:42:46.968Z,15.10
2018-06-12T01:43:19.618Z,15.20
2018-06-12T01:43:52.372Z,15.10
2018-06-12T01:44:25.424Z,15.10
2018-06-12T01:44:58.114Z,15.10
2018-06-12T01:45:30.927Z,15.10
2018-06-12T01:46:03.833Z,15.10
2018-06-12T01:46:36.588Z,15.10
2018-06-12T01:47:09.263Z,15.10
2018-06-12T01:47:41.934Z,15.00
2018-06-12T01:48:14.588Z,15.00
2018-06-12T01:48:47.243Z,15.00
2018-06-12T01:49:19.908Z,15.00
2018-06-12T01:49:52.615Z,15.00
2018-06-12T01:50:25.628Z,15.00
2018-06-12T01:50:58.630Z,14.90
2018-06-12T01:51:31.809Z,14.90
2018-06-12T01:52:04.649Z,14.90
2018-06-12T01:52:37.362Z,14.90
2018-06-12T01:53:10.076Z,14.80
2018-06-12T01:53:42.719Z,14.80
2018-06-12T01:54:15.378Z,14.80
2018-06-12T01:54:48.045Z,14.80
2018-06-12T01:55:20.710Z,14.80
2018-06-12T01:55:53.526Z,14.90
2018-06-12T01:56:26.714Z,14.90
2018-06-12T01:56:59.539Z,14.80
2018-06-12T01:57:32.380Z,14.90
2018-06-12T01:58:05.279Z,14.80
2018-06-12T01:58:37.982Z,14.80
2018-06-12T01:59:10.630Z,14.80
2018-06-12T01:59:43.294Z,14.80
2018-06-12T02:00:15.938Z,14.80
2018-06-12T02:00:48.573Z,14.80
2018-06-12T02:01:21.249Z,14.80
2018-06-12T02:01:54.338Z,14.90
2018-06-12T02:02:27.226Z,14.90
2018-06-12T02:03:00.191Z,14.90
2018-06-12T02:03:33.190Z,14.90
2018-06-12T02:04:05.883Z,14.80
2018-06-12T02:04:38.545Z,14.80
2018-06-12T02:05:11.218Z,14.80
2018-06-12T02:05:43.870Z,14.80
2018-06-12T02:06:16.523Z,14.80
2018-06-12T02:06:49.186Z,14.80
2018-06-12T02:07:21.860Z,14.80
2018-06-12T02:07:54.902Z,14.80
2018-06-12T02:08:27.890Z,14.90
2018-06-12T02:09:00.885Z,14.90
2018-06-12T02:09:33.718Z,14.80
2018-06-12T02:10:06.466Z,14.80
2018-06-12T02:10:39.138Z,14.90
2018-06-12T02:11:11.781Z,14.90
2018-06-12T02:11:44.473Z,14.80
2018-06-12T02:12:17.150Z,14.80
2018-06-12T02:12:49.811Z,14.80
2018-06-12T02:13:22.554Z,14.80
2018-06-12T02:13:55.821Z,14.80
2018-06-12T02:14:28.858Z,14.80
2018-06-12T02:15:01.699Z,14.80
2018-06-12T02:15:34.491Z,14.80
2018-06-12T02:16:07.195Z,14.80
2018-06-12T02:16:39.858Z,14.80
2018-06-12T02:17:12.519Z,14.90
2018-06-12T02:17:45.207Z,14.80
2018-06-12T02:18:17.898Z,14.80
2018-06-12T02:18:50.566Z,14.80
2018-06-12T02:19:23.392Z,14.80
2018-06-12T02:19:56.338Z,14.70
2018-06-12T02:20:29.411Z,14.80
2018-06-12T02:21:02.203Z,14.70
2018-06-12T02:21:34.898Z,14.70
2018-06-12T02:22:07.555Z,14.70
2018-06-12T02:22:40.230Z,14.70
2018-06-12T02:23:12.917Z,14.70
2018-06-12T02:23:45.598Z,14.70
2018-06-12T02:24:18.237Z,14.70
2018-06-12T02:24:50.934Z,14.70
2018-06-12T02:25:24.145Z,14.70
2018-06-12T02:25:57.552Z,14.70
2018-06-12T02:26:30.377Z,14.70
2018-06-12T02:27:03.206Z,14.60
2018-06-12T02:27:35.907Z,14.60
2018-06-12T02:28:08.558Z,14.60
2018-06-12T02:28:41.215Z,14.60
2018-06-12T02:29:13.882Z,14.60
2018-06-12T02:29:46.537Z,14.60
2018-06-12T02:30:19.227Z,14.70
2018-06-12T02:30:51.862Z,14.70
2018-06-12T02:31:25.232Z,14.70
2018-06-12T02:31:58.138Z,14.70
2018-06-12T02:32:31.086Z,14.70
2018-06-12T02:33:03.882Z,14.70
2018-06-12T02:33:36.571Z,14.70
2018-06-12T02:34:09.218Z,14.70
2018-06-12T02:34:41.898Z,14.70
2018-06-12T02:35:14.579Z,14.70
2018-06-12T02:35:47.267Z,14.70
2018-06-12T02:36:19.947Z,14.70
2018-06-12T02:36:52.775Z,14.70
2018-06-12T02:37:25.879Z,14.60
2018-06-12T02:37:58.754Z,14.60
2018-06-12T02:38:31.573Z,14.60
2018-06-12T02:39:06.538Z,14.60
2018-06-12T02:39:39.203Z,14.60
2018-06-12T02:40:11.895Z,14.60
2018-06-12T02:40:44.535Z,14.60
2018-06-12T02:41:17.222Z,14.60
2018-06-12T02:41:49.897Z,14.60
2018-06-12T02:42:22.704Z,14.50
2018-06-12T02:42:56.002Z,14.50
2018-06-12T02:43:28.859Z,14.50
2018-06-12T02:44:01.980Z,14.50
2018-06-12T02:44:34.928Z,14.50
2018-06-12T02:45:07.578Z,14.50
2018-06-12T02:45:40.270Z,14.50
2018-06-12T02:46:12.933Z,14.50
2018-06-12T02:46:45.631Z,14.50
2018-06-12T02:47:18.315Z,14.50
2018-06-12T02:47:50.971Z,14.50
2018-06-12T02:48:24.218Z,14.50
2018-06-12T02:48:57.194Z,14.50
2018-06-12T02:49:30.032Z,14.50
2018-06-12T02:50:03.682Z,14.60
2018-06-12T02:50:36.379Z,14.60
2018-06-12T02:51:09.074Z,14.60
2018-06-12T02:51:41.727Z,14.60
2018-06-12T02:52:14.423Z,14.70
2018-06-12T02:52:47.116Z,14.70
2018-06-12T02:53:19.783Z,14.70
2018-06-12T02:53:52.537Z,14.70
2018-06-12T02:54:26.550Z,14.70
2018-06-12T02:55:32.174Z,14.70
2018-06-12T02:56:05.839Z,14.80
2018-06-12T02:56:38.594Z,14.70
2018-06-12T02:57:11.256Z,14.70
2018-06-12T02:57:43.955Z,14.70
2018-06-12T02:58:16.635Z,14.70
2018-06-12T02:58:49.303Z,14.70
2018-06-12T02:59:21.966Z,14.60
2018-06-12T02:59:54.885Z,14.70
2018-06-12T03:00:28.055Z,14.60
2018-06-12T03:01:00.925Z,14.60
2018-06-12T03:01:33.765Z,14.60
2018-06-12T03:02:06.430Z,14.60
2018-06-12T03:02:39.099Z,14.60
2018-06-12T03:03:11.787Z,14.60
2018-06-12T03:03:44.438Z,14.60
2018-06-12T03:04:17.118Z,14.70
2018-06-12T03:04:49.784Z,14.70
2018-06-12T03:05:22.658Z,14.70
2018-06-12T03:05:55.660Z,14.80
2018-06-12T03:06:28.881Z,14.70
2018-06-12T03:07:01.721Z,14.70
2018-06-12T03:07:34.486Z,14.80
2018-06-12T03:08:07.179Z,14.80
2018-06-12T03:08:39.858Z,14.90
2018-06-12T03:09:12.518Z,14.90
2018-06-12T03:09:45.171Z,15.00
2018-06-12T03:10:17.854Z,15.00
2018-06-12T03:10:50.564Z,15.10
2018-06-12T03:11:23.933Z,15.10
2018-06-12T03:11:56.878Z,15.20
2018-06-12T03:13:02.922Z,15.20
2018-06-12T03:13:35.603Z,15.30
2018-06-12T03:14:08.311Z,15.40
2018-06-12T03:14:40.991Z,15.50
2018-06-12T03:15:13.679Z,15.50
2018-06-12T03:15:46.374Z,15.60
2018-06-12T03:16:19.018Z,15.60
2018-06-12T03:16:51.682Z,15.70
2018-06-12T03:17:24.576Z,15.70
2018-06-12T03:17:57.451Z,15.80
2018-06-12T03:18:30.291Z,15.80
2018-06-12T03:19:03.570Z,15.80
2018-06-12T03:19:36.387Z,15.80
2018-06-12T03:20:09.352Z,15.80
2018-06-12T03:20:43.898Z,15.80
2018-06-12T03:21:16.570Z,15.80
2018-06-12T03:21:49.254Z,15.80
2018-06-12T03:22:21.919Z,15.80
2018-06-12T03:22:54.919Z,15.80
2018-06-12T03:23:27.838Z,15.80
2018-06-12T03:24:00.946Z,15.70
2018-06-12T03:24:33.740Z,15.70
2018-06-12T03:25:06.495Z,15.70
2018-06-12T03:25:39.230Z,15.70
2018-06-12T03:26:11.906Z,15.70
2018-06-12T03:26:44.578Z,15.70
2018-06-12T03:27:17.236Z,15.70
2018-06-12T03:27:49.906Z,15.70
2018-06-12T03:28:22.895Z,15.60
2018-06-12T03:28:56.189Z,15.60
2018-06-12T03:29:29.043Z,15.70
2018-06-12T03:30:01.902Z,15.60
2018-06-12T03:31:07.299Z,15.60
2018-06-12T03:31:39.979Z,15.60
2018-06-12T03:32:12.656Z,15.60
2018-06-12T03:32:45.327Z,15.60
2018-06-12T03:33:17.978Z,15.60
2018-06-12T03:33:50.643Z,15.70
2018-06-12T03:34:23.757Z,15.70
2018-06-12T03:34:57.639Z,15.70
2018-06-12T03:35:30.677Z,15.70
2018-06-12T03:36:03.611Z,15.70
2018-06-12T03:36:36.349Z,15.70
2018-06-12T03:37:09.060Z,15.70
2018-06-12T03:37:41.762Z,15.70
2018-06-12T03:38:14.414Z,15.70
2018-06-12T03:38:47.074Z,15.70
2018-06-12T03:39:19.753Z,15.70
2018-06-12T03:39:52.414Z,15.70
2018-06-12T03:40:25.651Z,15.70
2018-06-12T03:40:58.887Z,15.70
2018-06-12T03:41:31.782Z,15.70
2018-06-12T03:42:04.619Z,15.70
2018-06-12T03:42:37.319Z,15.70
2018-06-12T03:43:09.995Z,15.70
2018-06-12T03:43:42.661Z,15.70
2018-06-12T03:44:15.322Z,15.70
2018-06-12T03:44:47.979Z,15.70
2018-06-12T03:45:20.641Z,15.70
2018-06-12T03:45:53.682Z,15.80
2018-06-12T03:46:26.865Z,15.80
2018-06-12T03:46:59.960Z,15.80
2018-06-12T03:47:32.853Z,15.80
2018-06-12T03:48:05.549Z,15.80
2018-06-12T03:48:38.222Z,15.80
2018-06-12T03:49:10.878Z,15.80
2018-06-12T03:49:43.519Z,15.80
2018-06-12T03:50:16.195Z,15.80
2018-06-12T03:50:48.847Z,15.80
2018-06-12T03:51:21.518Z,15.80
2018-06-12T03:51:54.920Z,15.90
2018-06-12T03:52:27.878Z,15.90
2018-06-12T03:53:00.731Z,15.90
2018-06-12T03:53:33.925Z,15.90
2018-06-12T03:54:06.648Z,15.90
2018-06-12T03:54:39.316Z,16.00
2018-06-12T03:55:11.980Z,16.00
2018-06-12T03:55:44.634Z,16.00
2018-06-12T03:56:17.318Z,16.00
2018-06-12T03:56:50.009Z,16.00
2018-06-12T03:57:22.710Z,16.00
2018-06-12T03:57:56.454Z,16.00
2018-06-12T03:58:29.258Z,16.00
2018-06-12T03:59:02.059Z,16.00
2018-06-12T03:59:34.879Z,16.10
2018-06-12T04:00:07.557Z,16.10
2018-06-12T04:00:40.250Z,16.10
2018-06-12T04:01:12.898Z,16.10
2018-06-12T04:01:45.567Z,16.10
2018-06-12T04:02:18.262Z,16.10
2018-06-12T04:02:50.946Z,16.10
2018-06-12T04:03:24.206Z,16.10
2018-06-12T04:03:57.201Z,16.10
2018-06-12T04:04:30.314Z,16.20
2018-06-12T04:05:03.490Z,16.20
2018-06-12T04:05:36.228Z,16.30
2018-06-12T04:06:08.895Z,16.30
2018-06-12T04:06:41.586Z,16.30
2018-06-12T04:07:14.315Z,16.30
2018-06-12T04:08:19.563Z,16.30
2018-06-12T04:08:52.195Z,16.30
2018-06-12T04:09:25.466Z,16.30
2018-06-12T04:09:58.680Z,16.30
2018-06-12T04:10:31.993Z,16.30
2018-06-12T04:11:04.743Z,16.40
2018-06-12T04:11:37.415Z,16.40
2018-06-12T04:12:10.070Z,16.40
2018-06-12T04:12:42.722Z,16.40
2018-06-12T04:13:15.448Z,16.30
2018-06-12T04:13:48.134Z,16.30
2018-06-12T04:14:20.823Z,16.30
2018-06-12T04:14:53.596Z,16.30
2018-06-12T04:15:26.589Z,16.30
2018-06-12T04:15:59.426Z,16.20
2018-06-12T04:16:35.397Z,16.20
2018-06-12T04:17:08.073Z,16.20
2018-06-12T04:17:40.742Z,16.20
2018-06-12T04:18:13.451Z,16.20
2018-06-12T04:18:46.142Z,16.10
2018-06-12T04:19:18.807Z,16.20
2018-06-12T04:19:51.511Z,16.10
2018-06-12T04:20:24.375Z,16.20
2018-06-12T04:20:57.523Z,16.20
2018-06-12T04:21:30.372Z,16.20
2018-06-12T04:22:03.439Z,16.20
2018-06-12T04:22:36.122Z,16.30
2018-06-12T04:23:08.783Z,16.30
2018-06-12T04:23:41.465Z,16.30
2018-06-12T04:24:14.182Z,16.30
2018-06-12T04:24:46.899Z,16.40
2018-06-12T04:25:19.603Z,16.40
2018-06-12T04:25:52.271Z,16.50
2018-06-12T04:26:25.167Z,16.50
2018-06-12T04:26:58.223Z,16.50
2018-06-12T04:27:31.142Z,16.60
2018-06-12T04:28:03.954Z,16.70
2018-06-12T04:28:36.626Z,16.70
2018-06-12T04:29:09.298Z,16.80
2018-06-12T04:29:41.954Z,16.80
2018-06-12T04:30:14.631Z,16.90
2018-06-12T04:30:47.308Z,16.90
2018-06-12T04:31:19.991Z,17.00
2018-06-12T04:31:52.750Z,17.10
2018-06-12T04:32:25.761Z,17.10
2018-06-12T04:32:58.614Z,17.20
2018-06-12T04:33:31.458Z,17.20
2018-06-12T04:34:04.226Z,17.30
2018-06-12T04:34:36.910Z,17.30
2018-06-12T04:35:09.583Z,17.40
2018-06-12T04:35:42.238Z,17.40
2018-06-12T04:36:14.930Z,17.40
2018-06-12T04:36:47.635Z,17.40
2018-06-12T04:37:20.318Z,17.50
2018-06-12T04:37:52.975Z,17.50
2018-06-12T04:38:26.225Z,17.50
2018-06-12T04:38:59.193Z,17.50
2018-06-12T04:39:32.167Z,17.60
2018-06-12T04:40:05.042Z,17.70
2018-06-12T04:40:37.734Z,17.70
2018-06-12T04:41:10.396Z,17.70
2018-06-12T04:41:43.070Z,17.70
2018-06-12T04:42:15.723Z,17.70
2018-06-12T04:42:48.366Z,17.80
2018-06-12T04:43:21.052Z,17.80
2018-06-12T04:43:53.863Z,17.70
2018-06-12T04:44:27.926Z,17.60
2018-06-12T04:45:00.759Z,17.50
2018-06-12T04:45:33.628Z,17.40
2018-06-12T04:46:06.395Z,17.40
2018-06-12T04:46:39.071Z,17.40
2018-06-12T04:47:11.794Z,17.30
2018-06-12T04:47:44.462Z,17.20
2018-06-12T04:48:17.138Z,17.20
2018-06-12T04:48:49.791Z,17.10
2018-06-12T04:49:22.466Z,17.10
2018-06-12T04:49:55.817Z,17.00
2018-06-12T04:50:28.700Z,17.00
2018-06-12T04:51:01.546Z,16.90
2018-06-12T04:51:34.410Z,16.90
2018-06-12T04:52:07.094Z,16.90
2018-06-12T04:52:39.788Z,16.90
2018-06-12T04:53:12.435Z,16.80
2018-06-12T04:53:45.094Z,16.80
2018-06-12T04:54:17.759Z,16.70
2018-06-12T04:54:50.446Z,16.70
2018-06-12T04:55:23.258Z,16.70
2018-06-12T04:55:55.994Z,16.70
2018-06-12T04:56:28.974Z,16.70
2018-06-12T04:57:01.828Z,16.70
2018-06-12T04:57:34.806Z,16.70
2018-06-12T04:58:07.567Z,16.70
2018-06-12T04:58:40.234Z,16.60
2018-06-12T04:59:12.902Z,16.60
2018-06-12T05:00:18.186Z,16.60
2018-06-12T05:00:50.827Z,16.70
2018-06-12T05:01:33.152Z,16.70
2018-06-12T05:02:08.336Z,16.60
2018-06-12T05:02:41.384Z,16.70
2018-06-12T05:03:14.299Z,16.70
2018-06-12T05:03:47.050Z,16.70
2018-06-12T05:04:19.702Z,16.80
2018-06-12T05:04:52.354Z,16.90
2018-06-12T05:05:25.023Z,17.00
2018-06-12T05:05:57.695Z,17.10
2018-06-12T05:06:30.386Z,17.20
2018-06-12T05:07:03.074Z,17.30
2018-06-12T05:07:36.158Z,17.40
2018-06-12T05:08:09.234Z,17.40
2018-06-12T05:08:42.053Z,17.40
2018-06-12T05:09:14.995Z,17.50
2018-06-12T05:09:47.690Z,17.50
2018-06-12T05:10:20.378Z,17.60
2018-06-12T05:10:53.039Z,17.70
2018-06-12T05:11:58.270Z,17.80
2018-06-12T05:12:30.946Z,17.80
2018-06-12T05:13:03.638Z,17.90
2018-06-12T05:13:36.686Z,17.90
2018-06-12T05:14:09.882Z,18.00
2018-06-12T05:14:42.693Z,18.00
2018-06-12T05:15:15.436Z,18.10
2018-06-12T05:15:48.155Z,18.10
2018-06-12T05:16:20.827Z,18.20
2018-06-12T05:16:53.494Z,18.20
2018-06-12T05:17:26.158Z,18.30
2018-06-12T05:17:58.821Z,18.30
2018-06-12T05:18:31.485Z,18.40
2018-06-12T05:19:04.391Z,18.50
2018-06-12T05:19:37.634Z,18.50
2018-06-12T05:20:10.471Z,18.50
2018-06-12T05:20:43.350Z,18.60
2018-06-12T05:21:16.059Z,18.70
2018-06-12T05:21:48.742Z,18.70
2018-06-12T05:22:21.470Z,18.70
2018-06-12T05:22:54.146Z,18.80
2018-06-12T05:23:26.830Z,18.80
2018-06-12T05:23:59.475Z,18.80
2018-06-12T05:24:32.126Z,18.80
2018-06-12T05:25:04.923Z,18.80
2018-06-12T05:25:38.071Z,18.70
2018-06-12T05:26:10.957Z,18.80
2018-06-12T05:26:44.764Z,18.80
2018-06-12T05:27:17.454Z,18.80
2018-06-12T05:27:50.122Z,18.80
2018-06-12T05:28:22.810Z,18.80
2018-06-12T05:28:55.739Z,18.80
2018-06-12T05:29:28.394Z,18.80
2018-06-12T05:30:01.045Z,18.80
2018-06-12T05:30:33.770Z,18.90
2018-06-12T05:31:07.134Z,18.80
2018-06-12T05:31:39.921Z,18.90
2018-06-12T05:32:12.713Z,18.90
2018-06-12T05:32:46.007Z,18.90
2018-06-12T05:33:51.298Z,19.00
2018-06-12T05:34:24.246Z,19.00
2018-06-12T05:34:56.987Z,19.10
2018-06-12T05:35:29.642Z,19.10
2018-06-12T05:36:02.335Z,19.10
2018-06-12T05:36:36.663Z,19.00
2018-06-12T05:37:10.008Z,18.90
2018-06-12T05:37:43.182Z,18.90
2018-06-12T05:38:15.947Z,18.90
2018-06-12T05:38:48.631Z,18.90
2018-06-12T05:39:21.278Z,18.90
2018-06-12T05:39:53.922Z,18.90
2018-06-12T05:40:26.578Z,18.80
2018-06-12T05:40:59.230Z,18.80
2018-06-12T05:41:31.926Z,18.80
2018-06-12T05:42:04.952Z,18.70
2018-06-12T05:42:38.286Z,18.70
2018-06-12T05:43:11.146Z,18.70
2018-06-12T05:43:43.963Z,18.70
2018-06-12T05:44:16.615Z,18.60
2018-06-12T05:44:49.267Z,18.60
2018-06-12T05:45:21.935Z,18.60
2018-06-12T05:45:54.599Z,18.60
2018-06-12T05:46:27.262Z,18.70
2018-06-12T05:47:00.042Z,18.80
2018-06-12T05:47:32.738Z,18.90
2018-06-12T05:48:06.173Z,19.00
2018-06-12T05:48:39.062Z,19.00
2018-06-12T05:49:11.853Z,19.00
2018-06-12T05:49:44.666Z,19.10
2018-06-12T05:50:17.346Z,19.10
2018-06-12T05:50:50.005Z,19.20
2018-06-12T05:51:22.662Z,19.20
2018-06-12T05:51:55.326Z,19.30
2018-06-12T05:52:28.019Z,19.30
2018-06-12T05:53:00.703Z,19.40
2018-06-12T05:53:33.358Z,19.40
2018-06-12T05:54:07.385Z,19.40
2018-06-12T05:54:40.248Z,19.40
2018-06-12T05:55:13.102Z,19.30
2018-06-12T05:55:45.889Z,19.30
2018-06-12T05:56:18.523Z,19.30
2018-06-12T05:56:51.190Z,19.40
2018-06-12T05:57:23.856Z,19.40
2018-06-12T05:57:56.563Z,19.50
2018-06-12T05:58:29.218Z,19.60
2018-06-12T05:59:01.887Z,19.50
2018-06-12T05:59:35.159Z,19.50
2018-06-12T06:00:08.202Z,19.60
2018-06-12T06:00:41.126Z,19.60
2018-06-12T06:01:13.989Z,19.60
2018-06-12T06:01:46.615Z,19.60
2018-06-12T06:02:19.474Z,19.60
2018-06-12T06:02:52.142Z,19.60
2018-06-12T06:03:24.843Z,19.50
2018-06-12T06:03:57.506Z,19.40
2018-06-12T06:04:30.177Z,19.30
2018-06-12T06:05:02.894Z,19.30
2018-06-12T06:05:35.780Z,19.30
2018-06-12T06:06:09.256Z,19.30
2018-06-12T06:06:42.016Z,19.30
2018-06-12T06:07:14.791Z,19.20
2018-06-12T06:07:47.483Z,19.30
2018-06-12T06:08:20.166Z,19.30
2018-06-12T06:08:52.859Z,19.30
2018-06-12T06:09:25.580Z,19.40
2018-06-12T06:09:58.234Z,19.40
2018-06-12T06:10:30.902Z,19.50
2018-06-12T06:11:03.595Z,19.50
2018-06-12T06:11:36.776Z,19.60
2018-06-12T06:12:09.615Z,19.60
2018-06-12T06:12:42.366Z,19.60
2018-06-12T06:13:15.124Z,19.60
2018-06-12T06:13:47.782Z,19.60
2018-06-12T06:14:20.491Z,19.60
2018-06-12T06:14:53.186Z,19.70
2018-06-12T06:15:25.875Z,19.80
2018-06-12T06:15:58.572Z,19.90
2018-06-12T06:16:31.230Z,20.00
2018-06-12T06:17:04.147Z,20.10
2018-06-12T06:17:37.060Z,20.00
2018-06-12T06:18:09.870Z,20.00
2018-06-12T06:18:42.645Z,20.00
2018-06-12T06:19:15.387Z,20.10
2018-06-12T06:19:48.074Z,20.10
2018-06-12T06:20:20.734Z,20.10
2018-06-12T06:20:53.427Z,20.00
2018-06-12T06:21:26.123Z,20.00
2018-06-12T06:21:58.798Z,20.00
2018-06-12T06:22:31.517Z,19.90
2018-06-12T06:23:04.296Z,19.80
2018-06-12T06:23:37.538Z,19.80
2018-06-12T06:24:10.436Z,19.80
2018-06-12T06:24:43.283Z,19.70
2018-06-12T06:25:16.002Z,19.70
2018-06-12T06:25:48.659Z,19.60
2018-06-12T06:26:21.331Z,19.60
2018-06-12T06:26:53.994Z,19.50
2018-06-12T06:27:26.655Z,19.50
2018-06-12T06:27:59.335Z,19.50
2018-06-12T06:28:32.034Z,19.50
2018-06-12T06:29:04.894Z,19.60
2018-06-12T06:29:38.280Z,19.60
2018-06-12T06:30:11.307Z,19.50
2018-06-12T06:30:44.267Z,19.50
2018-06-12T06:31:17.010Z,19.40
2018-06-12T06:31:49.706Z,19.40
2018-06-12T06:32:22.375Z,19.40
2018-06-12T06:32:55.047Z,19.40
2018-06-12T06:33:27.699Z,19.30
2018-06-12T06:34:00.358Z,19.30
2018-06-12T06:34:33.033Z,19.20
2018-06-12T06:35:38.714Z,19.10
2018-06-12T06:36:11.612Z,19.00
2018-06-12T06:36:44.467Z,19.00
2018-06-12T06:37:17.218Z,19.00
2018-06-12T06:37:49.930Z,19.00
2018-06-12T06:38:22.582Z,19.00
2018-06-12T06:38:55.248Z,19.10
2018-06-12T06:39:27.931Z,19.00
2018-06-12T06:40:00.622Z,19.00
2018-06-12T06:40:33.294Z,19.10
2018-06-12T06:41:06.235Z,19.20
2018-06-12T06:41:39.151Z,19.20
2018-06-12T06:42:11.982Z,19.30
2018-06-12T06:42:44.731Z,19.30
2018-06-12T06:43:17.391Z,19.40
2018-06-12T06:43:50.067Z,19.40
2018-06-12T06:44:22.792Z,19.40
2018-06-12T06:44:55.494Z,19.50
2018-06-12T06:45:28.211Z,19.50
2018-06-12T06:46:00.890Z,19.50
2018-06-12T06:46:33.575Z,19.50
2018-06-12T06:47:06.451Z,19.60
2018-06-12T06:47:39.466Z,19.70
2018-06-12T06:48:12.319Z,19.70
2018-06-12T06:48:45.039Z,19.80
2018-06-12T06:49:17.707Z,19.80
2018-06-12T06:49:50.379Z,19.80
2018-06-12T06:50:23.026Z,19.80
2018-06-12T06:50:55.758Z,19.80
2018-06-12T06:51:28.390Z,19.70
2018-06-12T06:52:01.085Z,19.70
2018-06-12T06:52:34.138Z,19.70
2018-06-12T06:53:07.057Z,19.80
2018-06-12T06:53:40.198Z,19.80
2018-06-12T06:54:13.234Z,19.80
2018-06-12T06:54:45.927Z,19.80
2018-06-12T06:55:18.606Z,19.80
2018-06-12T06:55:51.266Z,19.80
2018-06-12T06:56:23.970Z,19.80
2018-06-12T06:56:56.643Z,19.90
2018-06-12T06:57:29.290Z,19.90
2018-06-12T06:58:01.967Z,20.00
2018-06-12T06:58:35.015Z,20.00
2018-06-12T06:59:08.403Z,20.00
2018-06-12T06:59:41.709Z,20.00
2018-06-12T07:00:14.573Z,19.90
2018-06-12T07:00:47.292Z,19.90
2018-06-12T07:01:19.955Z,20.00
2018-06-12T07:01:52.618Z,20.00
2018-06-12T07:02:25.288Z,19.90
2018-06-12T07:02:57.954Z,19.90
2018-06-12T07:03:30.646Z,19.80
2018-06-12T07:04:03.323Z,19.80
2018-06-12T07:04:36.200Z,19.70
2018-06-12T07:05:08.990Z,19.70
2018-06-12T07:05:41.867Z,19.70
2018-06-12T07:06:14.676Z,19.60
2018-06-12T07:06:47.354Z,19.60
2018-06-12T07:07:20.007Z,19.50
2018-06-12T07:07:52.686Z,19.50
2018-06-12T07:08:25.383Z,19.40